sensor_id;sensor_type;location;lat;lon;timestamp;P1;durP1;ratioP1;P2;durP2;ratioP2
49834;SDS011;35729;52.090;13.162;2022-07-23T00:00:47;8.68;;;5.97;;
49834;SDS011;35729;52.090;13.162;2022-07-23T00:03:18;6.00;;;5.40;;
49834;SDS011;35729;52.090;13.162;2022-07-23T00:05:46;8.10;;;6.07;;
49834;SDS011;35729;52.090;13.162;2022-07-23T00:08:15;9.63;;;5.93;;
49834;SDS011;35729;52.090;13.162;2022-07-23T00:10:44;6.65;;;5.97;;
49834;SDS011;35729;52.090;13.162;2022-07-23T00:13:12;7.70;;;6.13;;
49834;SDS011;35729;52.090;13.162;2022-07-23T00:15:41;7.07;;;5.40;;
49834;SDS011;35729;52.090;13.162;2022-07-23T00:18:09;7.25;;;5.72;;
49834;SDS011;35729;52.090;13.162;2022-07-23T00:20:40;7.40;;;5.75;;
49834;SDS011;35729;52.090;13.162;2022-07-23T00:23:09;6.53;;;5.82;;
49834;SDS011;35729;52.090;13.162;2022-07-23T00:25:37;6.20;;;5.47;;
49834;SDS011;35729;52.090;13.162;2022-07-23T00:28:06;6.85;;;6.20;;
49834;SDS011;35729;52.090;13.162;2022-07-23T00:30:35;7.57;;;6.32;;
49834;SDS011;35729;52.090;13.162;2022-07-23T00:33:04;7.90;;;7.07;;
49834;SDS011;35729;52.090;13.162;2022-07-23T00:35:34;7.88;;;6.00;;
49834;SDS011;35729;52.090;13.162;2022-07-23T00:38:08;7.90;;;5.70;;
49834;SDS011;35729;52.090;13.162;2022-07-23T00:40:38;6.65;;;6.05;;
49834;SDS011;35729;52.090;13.162;2022-07-23T00:43:07;8.32;;;6.43;;
49834;SDS011;35729;52.090;13.162;2022-07-23T00:45:35;6.47;;;5.88;;
49834;SDS011;35729;52.090;13.162;2022-07-23T00:48:04;8.15;;;5.90;;
49834;SDS011;35729;52.090;13.162;2022-07-23T00:50:33;8.27;;;6.47;;
49834;SDS011;35729;52.090;13.162;2022-07-23T00:53:02;7.53;;;6.38;;
49834;SDS011;35729;52.090;13.162;2022-07-23T00:55:33;8.80;;;6.75;;
49834;SDS011;35729;52.090;13.162;2022-07-23T00:58:01;7.20;;;6.10;;
49834;SDS011;35729;52.090;13.162;2022-07-23T01:00:30;7.88;;;6.88;;
49834;SDS011;35729;52.090;13.162;2022-07-23T01:02:59;7.22;;;6.30;;
49834;SDS011;35729;52.090;13.162;2022-07-23T01:05:27;8.00;;;6.63;;
49834;SDS011;35729;52.090;13.162;2022-07-23T01:07:56;8.55;;;6.97;;
49834;SDS011;35729;52.090;13.162;2022-07-23T01:10:25;8.23;;;6.57;;
49834;SDS011;35729;52.090;13.162;2022-07-23T01:13:03;7.72;;;6.45;;
49834;SDS011;35729;52.090;13.162;2022-07-23T01:15:33;8.70;;;6.53;;
49834;SDS011;35729;52.090;13.162;2022-07-23T01:18:04;7.97;;;7.10;;
49834;SDS011;35729;52.090;13.162;2022-07-23T01:20:34;10.52;;;6.38;;
49834;SDS011;35729;52.090;13.162;2022-07-23T01:23:05;8.05;;;6.80;;
49834;SDS011;35729;52.090;13.162;2022-07-23T01:25:34;8.82;;;7.50;;
49834;SDS011;35729;52.090;13.162;2022-07-23T01:28:03;9.52;;;7.35;;
49834;SDS011;35729;52.090;13.162;2022-07-23T01:30:31;8.52;;;6.72;;
49834;SDS011;35729;52.090;13.162;2022-07-23T01:33:00;7.88;;;6.65;;
49834;SDS011;35729;52.090;13.162;2022-07-23T01:35:29;7.32;;;6.55;;
49834;SDS011;35729;52.090;13.162;2022-07-23T01:37:57;8.43;;;6.72;;
49834;SDS011;35729;52.090;13.162;2022-07-23T01:40:28;9.52;;;6.85;;
49834;SDS011;35729;52.090;13.162;2022-07-23T01:42:57;9.93;;;7.20;;
49834;SDS011;35729;52.090;13.162;2022-07-23T01:45:26;12.45;;;7.18;;
49834;SDS011;35729;52.090;13.162;2022-07-23T01:47:54;9.55;;;7.78;;
49834;SDS011;35729;52.090;13.162;2022-07-23T01:50:23;7.57;;;6.80;;
49834;SDS011;35729;52.090;13.162;2022-07-23T01:52:51;10.93;;;6.68;;
49834;SDS011;35729;52.090;13.162;2022-07-23T01:55:20;9.57;;;8.05;;
49834;SDS011;35729;52.090;13.162;2022-07-23T01:57:51;9.23;;;7.50;;
49834;SDS011;35729;52.090;13.162;2022-07-23T02:00:19;10.02;;;7.10;;
49834;SDS011;35729;52.090;13.162;2022-07-23T02:02:48;10.60;;;7.43;;
49834;SDS011;35729;52.090;13.162;2022-07-23T02:05:17;13.63;;;8.25;;
49834;SDS011;35729;52.090;13.162;2022-07-23T02:07:45;11.95;;;8.48;;
49834;SDS011;35729;52.090;13.162;2022-07-23T02:10:14;11.95;;;9.02;;
49834;SDS011;35729;52.090;13.162;2022-07-23T02:12:42;13.98;;;9.15;;
49834;SDS011;35729;52.090;13.162;2022-07-23T02:15:13;8.57;;;7.68;;
49834;SDS011;35729;52.090;13.162;2022-07-23T02:17:42;9.10;;;7.93;;
49834;SDS011;35729;52.090;13.162;2022-07-23T02:20:10;9.18;;;8.25;;
49834;SDS011;35729;52.090;13.162;2022-07-23T02:22:39;9.98;;;7.68;;
49834;SDS011;35729;52.090;13.162;2022-07-23T02:25:08;9.57;;;7.90;;
49834;SDS011;35729;52.090;13.162;2022-07-23T02:27:37;9.02;;;7.95;;
49834;SDS011;35729;52.090;13.162;2022-07-23T02:30:06;9.90;;;7.88;;
49834;SDS011;35729;52.090;13.162;2022-07-23T02:32:38;8.90;;;7.90;;
49834;SDS011;35729;52.090;13.162;2022-07-23T02:35:07;12.95;;;8.77;;
49834;SDS011;35729;52.090;13.162;2022-07-23T02:37:35;15.13;;;8.90;;
49834;SDS011;35729;52.090;13.162;2022-07-23T02:40:05;17.08;;;8.77;;
49834;SDS011;35729;52.090;13.162;2022-07-23T02:42:34;9.73;;;8.77;;
49834;SDS011;35729;52.090;13.162;2022-07-23T02:45:02;11.40;;;8.98;;
49834;SDS011;35729;52.090;13.162;2022-07-23T02:47:32;9.55;;;8.52;;
49834;SDS011;35729;52.090;13.162;2022-07-23T02:50:03;9.52;;;8.52;;
49834;SDS011;35729;52.090;13.162;2022-07-23T02:52:33;9.75;;;8.77;;
49834;SDS011;35729;52.090;13.162;2022-07-23T02:55:02;9.60;;;8.68;;
49834;SDS011;35729;52.090;13.162;2022-07-23T02:57:31;9.65;;;8.73;;
49834;SDS011;35729;52.090;13.162;2022-07-23T02:59:59;15.13;;;9.05;;
49834;SDS011;35729;52.090;13.162;2022-07-23T03:02:28;10.27;;;9.10;;
49834;SDS011;35729;52.090;13.162;2022-07-23T03:04:56;9.65;;;8.60;;
49834;SDS011;35729;52.090;13.162;2022-07-23T03:07:27;13.32;;;10.30;;
49834;SDS011;35729;52.090;13.162;2022-07-23T03:09:56;9.18;;;8.10;;
49834;SDS011;35729;52.090;13.162;2022-07-23T03:12:24;13.45;;;8.93;;
49834;SDS011;35729;52.090;13.162;2022-07-23T03:14:53;9.75;;;8.45;;
49834;SDS011;35729;52.090;13.162;2022-07-23T03:17:22;8.98;;;8.07;;
49834;SDS011;35729;52.090;13.162;2022-07-23T03:19:50;11.57;;;9.20;;
49834;SDS011;35729;52.090;13.162;2022-07-23T03:22:19;10.70;;;8.68;;
49834;SDS011;35729;52.090;13.162;2022-07-23T03:24:50;11.43;;;8.90;;
49834;SDS011;35729;52.090;13.162;2022-07-23T03:27:24;11.73;;;9.73;;
49834;SDS011;35729;52.090;13.162;2022-07-23T03:29:54;12.25;;;9.60;;
49834;SDS011;35729;52.090;13.162;2022-07-23T03:32:24;12.90;;;8.77;;
49834;SDS011;35729;52.090;13.162;2022-07-23T03:34:53;13.25;;;9.77;;
49834;SDS011;35729;52.090;13.162;2022-07-23T03:37:21;13.52;;;9.90;;
49834;SDS011;35729;52.090;13.162;2022-07-23T03:39:53;12.23;;;9.02;;
49834;SDS011;35729;52.090;13.162;2022-07-23T03:42:21;11.77;;;9.93;;
49834;SDS011;35729;52.090;13.162;2022-07-23T03:44:50;11.15;;;9.98;;
49834;SDS011;35729;52.090;13.162;2022-07-23T03:47:18;11.75;;;9.98;;
49834;SDS011;35729;52.090;13.162;2022-07-23T03:49:47;11.18;;;9.70;;
49834;SDS011;35729;52.090;13.162;2022-07-23T03:52:16;11.38;;;9.02;;
49834;SDS011;35729;52.090;13.162;2022-07-23T03:54:45;9.73;;;8.63;;
49834;SDS011;35729;52.090;13.162;2022-07-23T03:57:16;10.20;;;9.00;;
49834;SDS011;35729;52.090;13.162;2022-07-23T03:59:44;13.90;;;8.45;;
49834;SDS011;35729;52.090;13.162;2022-07-23T04:02:13;12.13;;;8.85;;
49834;SDS011;35729;52.090;13.162;2022-07-23T04:04:42;9.65;;;7.80;;
49834;SDS011;35729;52.090;13.162;2022-07-23T04:07:10;8.60;;;7.40;;
49834;SDS011;35729;52.090;13.162;2022-07-23T04:09:39;10.70;;;7.72;;
49834;SDS011;35729;52.090;13.162;2022-07-23T04:12:08;9.43;;;7.93;;
49834;SDS011;35729;52.090;13.162;2022-07-23T04:14:39;10.05;;;7.03;;
49834;SDS011;35729;52.090;13.162;2022-07-23T04:17:07;9.75;;;7.20;;
49834;SDS011;35729;52.090;13.162;2022-07-23T04:19:36;9.38;;;6.55;;
49834;SDS011;35729;52.090;13.162;2022-07-23T04:22:06;11.38;;;7.05;;
49834;SDS011;35729;52.090;13.162;2022-07-23T04:24:35;11.95;;;7.07;;
49834;SDS011;35729;52.090;13.162;2022-07-23T04:27:05;9.45;;;6.60;;
49834;SDS011;35729;52.090;13.162;2022-07-23T04:29:34;9.68;;;6.47;;
49834;SDS011;35729;52.090;13.162;2022-07-23T04:32:05;9.32;;;6.72;;
49834;SDS011;35729;52.090;13.162;2022-07-23T04:34:33;8.23;;;7.40;;
49834;SDS011;35729;52.090;13.162;2022-07-23T04:37:02;8.57;;;6.32;;
49834;SDS011;35729;52.090;13.162;2022-07-23T04:39:31;6.88;;;6.18;;
49834;SDS011;35729;52.090;13.162;2022-07-23T04:42:06;9.70;;;6.72;;
49834;SDS011;35729;52.090;13.162;2022-07-23T04:44:34;9.98;;;6.97;;
49834;SDS011;35729;52.090;13.162;2022-07-23T04:47:05;7.80;;;6.15;;
49834;SDS011;35729;52.090;13.162;2022-07-23T04:49:35;7.35;;;5.78;;
49834;SDS011;35729;52.090;13.162;2022-07-23T04:52:04;10.90;;;6.30;;
49834;SDS011;35729;52.090;13.162;2022-07-23T04:54:32;8.95;;;7.43;;
49834;SDS011;35729;52.090;13.162;2022-07-23T04:57:01;8.30;;;5.90;;
49834;SDS011;35729;52.090;13.162;2022-07-23T04:59:29;8.02;;;5.65;;
49834;SDS011;35729;52.090;13.162;2022-07-23T05:01:58;10.13;;;6.03;;
49834;SDS011;35729;52.090;13.162;2022-07-23T05:04:29;9.52;;;6.35;;
49834;SDS011;35729;52.090;13.162;2022-07-23T05:06:58;9.68;;;6.28;;
49834;SDS011;35729;52.090;13.162;2022-07-23T05:09:27;6.45;;;5.82;;
49834;SDS011;35729;52.090;13.162;2022-07-23T05:11:55;9.73;;;5.97;;
49834;SDS011;35729;52.090;13.162;2022-07-23T05:14:24;7.85;;;5.72;;
49834;SDS011;35729;52.090;13.162;2022-07-23T05:16:53;7.18;;;5.90;;
49834;SDS011;35729;52.090;13.162;2022-07-23T05:19:22;9.05;;;6.32;;
49834;SDS011;35729;52.090;13.162;2022-07-23T05:22:14;10.05;;;6.55;;
49834;SDS011;35729;52.090;13.162;2022-07-23T05:24:43;7.85;;;5.55;;
49834;SDS011;35729;52.090;13.162;2022-07-23T05:27:11;12.07;;;6.22;;
49834;SDS011;35729;52.090;13.162;2022-07-23T05:29:46;9.63;;;6.28;;
49834;SDS011;35729;52.090;13.162;2022-07-23T05:32:15;9.88;;;5.97;;
49834;SDS011;35729;52.090;13.162;2022-07-23T05:34:43;8.88;;;5.97;;
49834;SDS011;35729;52.090;13.162;2022-07-23T05:37:21;8.15;;;5.60;;
49834;SDS011;35729;52.090;13.162;2022-07-23T05:39:50;10.73;;;6.97;;
49834;SDS011;35729;52.090;13.162;2022-07-23T05:42:18;8.30;;;6.07;;
49834;SDS011;35729;52.090;13.162;2022-07-23T05:44:47;10.23;;;6.82;;
49834;SDS011;35729;52.090;13.162;2022-07-23T05:47:15;13.05;;;6.40;;
49834;SDS011;35729;52.090;13.162;2022-07-23T05:49:44;8.20;;;6.32;;
49834;SDS011;35729;52.090;13.162;2022-07-23T05:52:12;7.97;;;6.65;;
49834;SDS011;35729;52.090;13.162;2022-07-23T05:54:43;9.65;;;6.65;;
49834;SDS011;35729;52.090;13.162;2022-07-23T05:57:12;12.20;;;7.15;;
49834;SDS011;35729;52.090;13.162;2022-07-23T05:59:40;13.25;;;7.25;;
49834;SDS011;35729;52.090;13.162;2022-07-23T06:02:09;12.35;;;6.80;;
49834;SDS011;35729;52.090;13.162;2022-07-23T06:04:37;9.25;;;6.60;;
49834;SDS011;35729;52.090;13.162;2022-07-23T06:07:06;10.20;;;6.95;;
49834;SDS011;35729;52.090;13.162;2022-07-23T06:09:34;11.57;;;7.47;;
49834;SDS011;35729;52.090;13.162;2022-07-23T06:12:06;13.13;;;7.30;;
49834;SDS011;35729;52.090;13.162;2022-07-23T06:14:35;17.67;;;9.48;;
49834;SDS011;35729;52.090;13.162;2022-07-23T06:17:04;13.43;;;9.30;;
49834;SDS011;35729;52.090;13.162;2022-07-23T06:19:32;13.95;;;9.18;;
49834;SDS011;35729;52.090;13.162;2022-07-23T06:22:01;11.68;;;8.60;;
49834;SDS011;35729;52.090;13.162;2022-07-23T06:24:30;10.20;;;8.02;;
49834;SDS011;35729;52.090;13.162;2022-07-23T06:26:58;16.30;;;10.00;;
49834;SDS011;35729;52.090;13.162;2022-07-23T06:29:29;13.18;;;9.57;;
49834;SDS011;35729;52.090;13.162;2022-07-23T06:31:58;12.20;;;9.55;;
49834;SDS011;35729;52.090;13.162;2022-07-23T06:34:26;10.48;;;8.13;;
49834;SDS011;35729;52.090;13.162;2022-07-23T06:36:55;9.55;;;8.20;;
49834;SDS011;35729;52.090;13.162;2022-07-23T06:39:24;15.45;;;8.25;;
49834;SDS011;35729;52.090;13.162;2022-07-23T06:41:53;12.18;;;9.13;;
49834;SDS011;35729;52.090;13.162;2022-07-23T06:44:21;10.65;;;8.02;;
49834;SDS011;35729;52.090;13.162;2022-07-23T06:46:52;9.88;;;7.78;;
49834;SDS011;35729;52.090;13.162;2022-07-23T06:49:21;9.38;;;7.50;;
49834;SDS011;35729;52.090;13.162;2022-07-23T06:51:49;11.63;;;7.53;;
49834;SDS011;35729;52.090;13.162;2022-07-23T06:54:18;10.05;;;6.80;;
49834;SDS011;35729;52.090;13.162;2022-07-23T06:56:46;10.65;;;7.65;;
49834;SDS011;35729;52.090;13.162;2022-07-23T06:59:15;12.65;;;7.80;;
49834;SDS011;35729;52.090;13.162;2022-07-23T07:01:43;12.50;;;7.70;;
49834;SDS011;35729;52.090;13.162;2022-07-23T07:04:14;9.15;;;7.22;;
49834;SDS011;35729;52.090;13.162;2022-07-23T07:06:43;10.80;;;7.93;;
49834;SDS011;35729;52.090;13.162;2022-07-23T07:09:11;12.55;;;8.35;;
49834;SDS011;35729;52.090;13.162;2022-07-23T07:11:40;12.50;;;7.40;;
49834;SDS011;35729;52.090;13.162;2022-07-23T07:14:08;10.68;;;8.00;;
49834;SDS011;35729;52.090;13.162;2022-07-23T07:16:37;10.77;;;8.20;;
49834;SDS011;35729;52.090;13.162;2022-07-23T07:19:05;28.33;;;18.88;;
49834;SDS011;35729;52.090;13.162;2022-07-23T07:21:37;24.52;;;16.05;;
49834;SDS011;35729;52.090;13.162;2022-07-23T07:24:05;13.30;;;9.73;;
49834;SDS011;35729;52.090;13.162;2022-07-23T07:26:34;11.43;;;8.82;;
49834;SDS011;35729;52.090;13.162;2022-07-23T07:29:03;12.07;;;8.95;;
49834;SDS011;35729;52.090;13.162;2022-07-23T07:31:32;14.40;;;9.18;;
49834;SDS011;35729;52.090;13.162;2022-07-23T07:34:01;14.10;;;9.10;;
49834;SDS011;35729;52.090;13.162;2022-07-23T07:36:30;14.32;;;8.82;;
49834;SDS011;35729;52.090;13.162;2022-07-23T07:39:02;11.35;;;7.90;;
49834;SDS011;35729;52.090;13.162;2022-07-23T07:41:32;12.23;;;8.32;;
49834;SDS011;35729;52.090;13.162;2022-07-23T07:44:00;15.30;;;9.65;;
49834;SDS011;35729;52.090;13.162;2022-07-23T07:46:29;13.30;;;9.10;;
49834;SDS011;35729;52.090;13.162;2022-07-23T07:48:57;11.43;;;8.95;;
49834;SDS011;35729;52.090;13.162;2022-07-23T07:51:26;10.88;;;8.65;;
49834;SDS011;35729;52.090;13.162;2022-07-23T07:53:54;11.93;;;8.20;;
49834;SDS011;35729;52.090;13.162;2022-07-23T07:56:26;14.45;;;8.30;;
49834;SDS011;35729;52.090;13.162;2022-07-23T07:58:55;8.98;;;7.45;;
49834;SDS011;35729;52.090;13.162;2022-07-23T08:01:23;12.73;;;8.00;;
49834;SDS011;35729;52.090;13.162;2022-07-23T08:03:52;9.48;;;7.97;;
49834;SDS011;35729;52.090;13.162;2022-07-23T08:06:20;11.55;;;7.22;;
49834;SDS011;35729;52.090;13.162;2022-07-23T08:08:49;9.27;;;7.07;;
49834;SDS011;35729;52.090;13.162;2022-07-23T08:11:17;9.77;;;7.50;;
49834;SDS011;35729;52.090;13.162;2022-07-23T08:13:48;11.60;;;7.65;;
49834;SDS011;35729;52.090;13.162;2022-07-23T08:16:17;8.40;;;6.88;;
49834;SDS011;35729;52.090;13.162;2022-07-23T08:18:45;11.48;;;6.60;;
49834;SDS011;35729;52.090;13.162;2022-07-23T08:21:14;9.50;;;6.20;;
49834;SDS011;35729;52.090;13.162;2022-07-23T08:23:42;8.38;;;6.50;;
49834;SDS011;35729;52.090;13.162;2022-07-23T08:26:11;9.23;;;6.30;;
49834;SDS011;35729;52.090;13.162;2022-07-23T08:28:40;10.50;;;6.40;;
49834;SDS011;35729;52.090;13.162;2022-07-23T08:31:11;10.20;;;6.30;;
49834;SDS011;35729;52.090;13.162;2022-07-23T08:33:41;8.27;;;5.90;;
49834;SDS011;35729;52.090;13.162;2022-07-23T08:36:10;7.07;;;5.30;;
49834;SDS011;35729;52.090;13.162;2022-07-23T08:38:38;6.75;;;5.32;;
49834;SDS011;35729;52.090;13.162;2022-07-23T08:41:08;8.75;;;6.53;;
49834;SDS011;35729;52.090;13.162;2022-07-23T08:43:37;7.53;;;5.22;;
49834;SDS011;35729;52.090;13.162;2022-07-23T08:46:06;8.60;;;5.70;;
49834;SDS011;35729;52.090;13.162;2022-07-23T08:48:37;8.27;;;6.43;;
49834;SDS011;35729;52.090;13.162;2022-07-23T08:51:06;6.88;;;5.53;;
49834;SDS011;35729;52.090;13.162;2022-07-23T08:53:35;7.85;;;6.32;;
49834;SDS011;35729;52.090;13.162;2022-07-23T08:56:05;7.47;;;5.72;;
49834;SDS011;35729;52.090;13.162;2022-07-23T08:58:35;8.27;;;5.55;;
49834;SDS011;35729;52.090;13.162;2022-07-23T09:01:03;8.57;;;5.90;;
49834;SDS011;35729;52.090;13.162;2022-07-23T09:03:33;8.85;;;6.10;;
49834;SDS011;35729;52.090;13.162;2022-07-23T09:06:06;7.57;;;6.20;;
49834;SDS011;35729;52.090;13.162;2022-07-23T09:08:36;8.65;;;6.00;;
49834;SDS011;35729;52.090;13.162;2022-07-23T09:11:06;8.93;;;6.07;;
49834;SDS011;35729;52.090;13.162;2022-07-23T09:13:37;8.27;;;5.80;;
49834;SDS011;35729;52.090;13.162;2022-07-23T09:16:10;8.90;;;5.63;;
49834;SDS011;35729;52.090;13.162;2022-07-23T09:18:41;9.80;;;5.82;;
49834;SDS011;35729;52.090;13.162;2022-07-23T09:21:18;10.27;;;6.13;;
49834;SDS011;35729;52.090;13.162;2022-07-23T09:23:50;8.00;;;5.90;;
49834;SDS011;35729;52.090;13.162;2022-07-23T09:28:52;9.90;;;6.00;;
49834;SDS011;35729;52.090;13.162;2022-07-23T09:31:23;8.05;;;6.25;;
49834;SDS011;35729;52.090;13.162;2022-07-23T09:34:01;9.93;;;6.65;;
49834;SDS011;35729;52.090;13.162;2022-07-23T09:36:37;8.30;;;6.43;;
49834;SDS011;35729;52.090;13.162;2022-07-23T09:39:06;8.30;;;6.65;;
49834;SDS011;35729;52.090;13.162;2022-07-23T09:41:37;10.90;;;6.78;;
49834;SDS011;35729;52.090;13.162;2022-07-23T09:44:08;7.50;;;5.95;;
49834;SDS011;35729;52.090;13.162;2022-07-23T09:46:39;11.60;;;7.13;;
49834;SDS011;35729;52.090;13.162;2022-07-23T09:49:12;7.97;;;7.18;;
49834;SDS011;35729;52.090;13.162;2022-07-23T09:51:46;9.45;;;6.28;;
49834;SDS011;35729;52.090;13.162;2022-07-23T09:54:21;9.25;;;6.68;;
49834;SDS011;35729;52.090;13.162;2022-07-23T09:56:52;7.75;;;5.75;;
49834;SDS011;35729;52.090;13.162;2022-07-23T09:59:22;9.35;;;6.53;;
49834;SDS011;35729;52.090;13.162;2022-07-23T10:01:53;12.05;;;6.95;;
49834;SDS011;35729;52.090;13.162;2022-07-23T10:04:25;8.65;;;6.63;;
49834;SDS011;35729;52.090;13.162;2022-07-23T10:06:59;7.60;;;6.78;;
49834;SDS011;35729;52.090;13.162;2022-07-23T10:09:29;8.13;;;7.32;;
49834;SDS011;35729;52.090;13.162;2022-07-23T10:11:59;11.75;;;8.13;;
49834;SDS011;35729;52.090;13.162;2022-07-23T10:14:33;8.25;;;6.90;;
49834;SDS011;35729;52.090;13.162;2022-07-23T10:17:02;8.55;;;7.28;;
49834;SDS011;35729;52.090;13.162;2022-07-23T10:19:32;8.95;;;7.22;;
49834;SDS011;35729;52.090;13.162;2022-07-23T10:22:03;8.77;;;7.50;;
49834;SDS011;35729;52.090;13.162;2022-07-23T10:24:44;8.77;;;7.50;;
49834;SDS011;35729;52.090;13.162;2022-07-23T10:27:22;11.15;;;8.05;;
49834;SDS011;35729;52.090;13.162;2022-07-23T10:30:07;9.05;;;6.68;;
49834;SDS011;35729;52.090;13.162;2022-07-23T10:32:42;10.02;;;7.60;;
49834;SDS011;35729;52.090;13.162;2022-07-23T10:35:25;10.60;;;7.30;;
49834;SDS011;35729;52.090;13.162;2022-07-23T10:38:02;8.48;;;7.00;;
49834;SDS011;35729;52.090;13.162;2022-07-23T10:40:35;10.27;;;7.38;;
49834;SDS011;35729;52.090;13.162;2022-07-23T10:43:04;8.98;;;7.75;;
49834;SDS011;35729;52.090;13.162;2022-07-23T10:45:43;11.40;;;6.47;;
49834;SDS011;35729;52.090;13.162;2022-07-23T10:48:13;10.15;;;6.43;;
49834;SDS011;35729;52.090;13.162;2022-07-23T10:50:43;8.60;;;6.38;;
49834;SDS011;35729;52.090;13.162;2022-07-23T10:59:18;8.43;;;5.55;;
49834;SDS011;35729;52.090;13.162;2022-07-23T11:01:46;8.57;;;5.45;;
49834;SDS011;35729;52.090;13.162;2022-07-23T11:04:15;7.85;;;5.75;;
49834;SDS011;35729;52.090;13.162;2022-07-23T11:09:45;6.07;;;5.47;;
49834;SDS011;35729;52.090;13.162;2022-07-23T11:15:01;8.55;;;6.32;;
49834;SDS011;35729;52.090;13.162;2022-07-23T11:17:32;9.25;;;6.35;;
49834;SDS011;35729;52.090;13.162;2022-07-23T11:20:18;9.75;;;6.00;;
49834;SDS011;35729;52.090;13.162;2022-07-23T11:22:49;8.77;;;6.72;;
49834;SDS011;35729;52.090;13.162;2022-07-23T11:25:32;9.40;;;6.60;;
49834;SDS011;35729;52.090;13.162;2022-07-23T11:28:15;9.15;;;7.07;;
49834;SDS011;35729;52.090;13.162;2022-07-23T11:30:46;7.40;;;5.88;;
49834;SDS011;35729;52.090;13.162;2022-07-23T11:33:16;7.80;;;6.32;;
49834;SDS011;35729;52.090;13.162;2022-07-23T11:35:46;9.02;;;6.10;;
49834;SDS011;35729;52.090;13.162;2022-07-23T11:38:17;9.13;;;6.00;;
49834;SDS011;35729;52.090;13.162;2022-07-23T11:40:51;6.35;;;5.20;;
49834;SDS011;35729;52.090;13.162;2022-07-23T11:43:22;8.35;;;6.07;;
49834;SDS011;35729;52.090;13.162;2022-07-23T11:45:52;9.43;;;5.93;;
49834;SDS011;35729;52.090;13.162;2022-07-23T11:48:22;8.10;;;5.68;;
49834;SDS011;35729;52.090;13.162;2022-07-23T11:50:53;5.53;;;4.72;;
49834;SDS011;35729;52.090;13.162;2022-07-23T11:53:23;7.88;;;5.38;;
49834;SDS011;35729;52.090;13.162;2022-07-23T11:55:57;8.05;;;5.65;;
49834;SDS011;35729;52.090;13.162;2022-07-23T11:58:31;5.63;;;4.72;;
49834;SDS011;35729;52.090;13.162;2022-07-23T12:01:00;5.82;;;4.28;;
49834;SDS011;35729;52.090;13.162;2022-07-23T12:03:28;7.53;;;4.70;;
49834;SDS011;35729;52.090;13.162;2022-07-23T12:05:58;7.18;;;4.40;;
49834;SDS011;35729;52.090;13.162;2022-07-23T12:08:27;4.75;;;4.25;;
49834;SDS011;35729;52.090;13.162;2022-07-23T12:10:59;6.65;;;4.68;;
49834;SDS011;35729;52.090;13.162;2022-07-23T12:13:28;6.60;;;4.68;;
49834;SDS011;35729;52.090;13.162;2022-07-23T12:15:57;7.10;;;4.88;;
49834;SDS011;35729;52.090;13.162;2022-07-23T12:18:26;7.22;;;4.93;;
49834;SDS011;35729;52.090;13.162;2022-07-23T12:20:56;7.28;;;4.07;;
49834;SDS011;35729;52.090;13.162;2022-07-23T12:23:31;7.78;;;4.32;;
49834;SDS011;35729;52.090;13.162;2022-07-23T12:26:05;7.63;;;4.28;;
49834;SDS011;35729;52.090;13.162;2022-07-23T12:31:07;5.43;;;4.57;;
49834;SDS011;35729;52.090;13.162;2022-07-23T12:33:37;8.02;;;4.85;;
49834;SDS011;35729;52.090;13.162;2022-07-23T12:36:07;5.72;;;4.20;;
49834;SDS011;35729;52.090;13.162;2022-07-23T12:38:38;8.55;;;5.25;;
49834;SDS011;35729;52.090;13.162;2022-07-23T12:41:11;8.85;;;4.30;;
49834;SDS011;35729;52.090;13.162;2022-07-23T12:43:40;5.70;;;4.18;;
49834;SDS011;35729;52.090;13.162;2022-07-23T12:46:12;5.65;;;4.13;;
49834;SDS011;35729;52.090;13.162;2022-07-23T12:48:49;5.03;;;4.05;;
49834;SDS011;35729;52.090;13.162;2022-07-23T12:51:21;6.85;;;4.35;;
49834;SDS011;35729;52.090;13.162;2022-07-23T12:53:51;7.75;;;4.20;;
49834;SDS011;35729;52.090;13.162;2022-07-23T12:56:27;6.28;;;4.57;;
49834;SDS011;35729;52.090;13.162;2022-07-23T12:58:59;9.35;;;4.07;;
49834;SDS011;35729;52.090;13.162;2022-07-23T13:01:35;9.82;;;5.72;;
49834;SDS011;35729;52.090;13.162;2022-07-23T13:04:05;7.38;;;4.75;;
49834;SDS011;35729;52.090;13.162;2022-07-23T13:06:35;6.82;;;4.57;;
49834;SDS011;35729;52.090;13.162;2022-07-23T13:09:06;5.55;;;4.55;;
49834;SDS011;35729;52.090;13.162;2022-07-23T13:14:08;8.48;;;5.20;;
49834;SDS011;35729;52.090;13.162;2022-07-23T13:16:37;4.40;;;4.00;;
49834;SDS011;35729;52.090;13.162;2022-07-23T13:19:06;5.18;;;4.00;;
49834;SDS011;35729;52.090;13.162;2022-07-23T13:21:35;7.20;;;4.28;;
49834;SDS011;35729;52.090;13.162;2022-07-23T13:24:04;4.85;;;4.35;;
49834;SDS011;35729;52.090;13.162;2022-07-23T13:26:33;5.80;;;4.60;;
49834;SDS011;35729;52.090;13.162;2022-07-23T13:29:04;5.00;;;3.95;;
49834;SDS011;35729;52.090;13.162;2022-07-23T13:31:33;5.95;;;4.45;;
49834;SDS011;35729;52.090;13.162;2022-07-23T13:34:03;8.43;;;4.35;;
49834;SDS011;35729;52.090;13.162;2022-07-23T13:36:32;6.85;;;4.22;;
49834;SDS011;35729;52.090;13.162;2022-07-23T13:39:01;5.93;;;4.18;;
49834;SDS011;35729;52.090;13.162;2022-07-23T13:41:30;6.55;;;4.13;;
49834;SDS011;35729;52.090;13.162;2022-07-23T13:43:59;5.78;;;4.35;;
49834;SDS011;35729;52.090;13.162;2022-07-23T13:46:30;4.32;;;3.92;;
49834;SDS011;35729;52.090;13.162;2022-07-23T13:48:58;6.30;;;4.75;;
49834;SDS011;35729;52.090;13.162;2022-07-23T13:51:27;6.22;;;4.25;;
49834;SDS011;35729;52.090;13.162;2022-07-23T13:53:55;4.57;;;3.75;;
49834;SDS011;35729;52.090;13.162;2022-07-23T13:56:24;4.30;;;3.90;;
49834;SDS011;35729;52.090;13.162;2022-07-23T13:58:53;4.07;;;3.50;;
49834;SDS011;35729;52.090;13.162;2022-07-23T14:01:21;5.90;;;4.07;;
49834;SDS011;35729;52.090;13.162;2022-07-23T14:03:52;5.55;;;3.35;;
49834;SDS011;35729;52.090;13.162;2022-07-23T14:06:21;5.45;;;4.13;;
49834;SDS011;35729;52.090;13.162;2022-07-23T14:08:50;4.47;;;3.53;;
49834;SDS011;35729;52.090;13.162;2022-07-23T14:11:18;5.47;;;3.78;;
49834;SDS011;35729;52.090;13.162;2022-07-23T14:13:47;4.75;;;4.07;;
49834;SDS011;35729;52.090;13.162;2022-07-23T14:16:15;4.35;;;3.90;;
49834;SDS011;35729;52.090;13.162;2022-07-23T14:18:53;5.47;;;3.95;;
49834;SDS011;35729;52.090;13.162;2022-07-23T14:21:22;6.53;;;3.70;;
49834;SDS011;35729;52.090;13.162;2022-07-23T14:23:50;3.97;;;3.42;;
49834;SDS011;35729;52.090;13.162;2022-07-23T14:26:19;4.50;;;3.15;;
49834;SDS011;35729;52.090;13.162;2022-07-23T14:28:47;5.03;;;3.70;;
49834;SDS011;35729;52.090;13.162;2022-07-23T14:31:16;4.43;;;3.72;;
49834;SDS011;35729;52.090;13.162;2022-07-23T14:33:44;7.07;;;4.72;;
49834;SDS011;35729;52.090;13.162;2022-07-23T14:36:16;6.05;;;3.35;;
49834;SDS011;35729;52.090;13.162;2022-07-23T14:38:44;4.50;;;3.80;;
49834;SDS011;35729;52.090;13.162;2022-07-23T14:41:13;5.88;;;3.50;;
49834;SDS011;35729;52.090;13.162;2022-07-23T14:43:41;5.22;;;3.45;;
49834;SDS011;35729;52.090;13.162;2022-07-23T14:46:10;4.43;;;3.47;;
49834;SDS011;35729;52.090;13.162;2022-07-23T14:48:40;6.05;;;3.40;;
49834;SDS011;35729;52.090;13.162;2022-07-23T14:51:08;6.03;;;3.17;;
49834;SDS011;35729;52.090;13.162;2022-07-23T14:53:39;5.13;;;3.60;;
49834;SDS011;35729;52.090;13.162;2022-07-23T14:56:08;5.18;;;3.67;;
49834;SDS011;35729;52.090;13.162;2022-07-23T14:58:38;5.13;;;3.85;;
49834;SDS011;35729;52.090;13.162;2022-07-23T15:01:07;5.40;;;3.20;;
49834;SDS011;35729;52.090;13.162;2022-07-23T15:03:35;3.88;;;3.38;;
49834;SDS011;35729;52.090;13.162;2022-07-23T15:06:04;5.10;;;3.38;;